createdAt,value
2018-03-01T00:00:25.776Z,-6.10
2018-03-01T00:02:52.110Z,-6.10
2018-03-01T00:05:18.474Z,-6.10
2018-03-01T00:07:44.975Z,-6.10
2018-03-01T00:10:11.319Z,-6.20
2018-03-01T00:12:37.643Z,-6.10
2018-03-01T00:15:04.783Z,-6.10
2018-03-01T00:17:31.042Z,-6.10
2018-03-01T00:19:58.149Z,-6.20
2018-03-01T00:22:36.021Z,-6.30
2018-03-01T00:25:03.162Z,-6.20
2018-03-01T00:27:30.491Z,-6.20
2018-03-01T00:30:04.777Z,-6.20
2018-03-01T00:32:31.852Z,-6.20
2018-03-01T00:34:58.290Z,-6.20
2018-03-01T00:37:25.710Z,-6.20
2018-03-01T00:39:51.985Z,-6.20
2018-03-01T00:42:18.359Z,-6.30
2018-03-01T00:44:44.743Z,-6.20
2018-03-01T00:47:11.042Z,-6.30
2018-03-01T00:49:37.371Z,-6.30
2018-03-01T00:52:04.726Z,-6.30
2018-03-01T00:54:31.798Z,-6.30
2018-03-01T00:57:00.101Z,-6.30
2018-03-01T00:59:26.500Z,-6.30
2018-03-01T01:01:52.888Z,-6.30
2018-03-01T01:04:19.247Z,-6.40
2018-03-01T01:06:45.765Z,-6.40
2018-03-01T01:09:12.855Z,-6.40
2018-03-01T01:11:39.167Z,-6.40
2018-03-01T01:14:05.807Z,-6.30
2018-03-01T01:16:32.830Z,-6.40
2018-03-01T01:19:00.142Z,-6.40
2018-03-01T01:21:27.258Z,-6.40
2018-03-01T01:23:53.563Z,-6.40
2018-03-01T01:26:19.890Z,-6.40
2018-03-01T01:28:46.391Z,-6.50
2018-03-01T01:31:12.836Z,-6.50
2018-03-01T01:33:40.268Z,-6.50
2018-03-01T01:36:06.732Z,-6.40
2018-03-01T01:38:33.003Z,-6.50
2018-03-01T01:40:59.376Z,-6.50
2018-03-01T01:43:25.894Z,-6.50
2018-03-01T01:45:52.283Z,-6.60
2018-03-01T01:48:18.664Z,-6.60
2018-03-01T01:51:01.994Z,-6.60
2018-03-01T01:53:28.307Z,-6.70
2018-03-01T01:55:54.642Z,-6.60
2018-03-01T01:58:21.032Z,-6.60
2018-03-01T02:00:47.379Z,-6.70
2018-03-01T02:03:13.684Z,-6.70
2018-03-01T02:05:41.891Z,-6.70
2018-03-01T02:08:08.219Z,-6.70
2018-03-01T02:10:34.659Z,-6.70
2018-03-01T02:13:02.056Z,-6.70
2018-03-01T02:15:28.347Z,-6.70
2018-03-01T02:17:55.411Z,-6.70
2018-03-01T02:20:21.907Z,-6.70
2018-03-01T02:22:48.186Z,-6.70
2018-03-01T02:25:15.196Z,-6.70
2018-03-01T02:27:41.887Z,-6.70
2018-03-01T02:30:10.121Z,-6.70
2018-03-01T02:32:36.463Z,-6.70
2018-03-01T02:35:02.950Z,-6.70
2018-03-01T02:37:29.335Z,-6.70
2018-03-01T02:39:55.672Z,-6.70
2018-03-01T02:42:22.146Z,-6.70
2018-03-01T02:44:48.477Z,-6.70
2018-03-01T02:47:14.818Z,-6.70
2018-03-01T02:49:44.660Z,-6.70
2018-03-01T02:52:10.975Z,-6.60
2018-03-01T02:54:37.304Z,-6.60
2018-03-01T02:57:04.527Z,-6.60
2018-03-01T02:59:30.811Z,-6.70
2018-03-01T03:01:57.871Z,-6.70
2018-03-01T03:04:24.911Z,-6.60
2018-03-01T03:06:51.291Z,-6.60
2018-03-01T03:09:19.661Z,-6.50
2018-03-01T03:11:46.787Z,-6.60
2018-03-01T03:14:13.071Z,-6.60
2018-03-01T03:16:39.480Z,-6.60
2018-03-01T03:19:05.887Z,-6.60
2018-03-01T03:21:33.315Z,-6.50
2018-03-01T03:23:59.667Z,-6.50
2018-03-01T03:26:26.706Z,-6.50
2018-03-01T03:28:54.024Z,-6.60
2018-03-01T03:31:20.335Z,-6.50
2018-03-01T03:33:47.949Z,-6.60
2018-03-01T03:36:14.368Z,-6.60
2018-03-01T03:38:40.700Z,-6.60
2018-03-01T03:41:07.091Z,-6.60
2018-03-01T03:43:33.415Z,-6.60
2018-03-01T03:45:59.719Z,-6.60
2018-03-01T03:48:27.174Z,-6.50
2018-03-01T03:50:53.555Z,-6.50
2018-03-01T03:53:20.831Z,-6.60
2018-03-01T03:55:47.200Z,-6.50
2018-03-01T03:58:13.500Z,-6.60
2018-03-01T04:00:39.775Z,-6.60
2018-03-01T04:03:06.280Z,-6.60
2018-03-01T04:05:32.559Z,-6.60
2018-03-01T04:07:58.846Z,-6.60
2018-03-01T04:10:25.811Z,-6.60
2018-03-01T04:12:52.147Z,-6.60
2018-03-01T04:15:19.494Z,-6.60
2018-03-01T04:17:45.974Z,-6.70
2018-03-01T04:20:12.343Z,-6.60
2018-03-01T04:22:39.706Z,-6.60
2018-03-01T04:25:06.152Z,-6.60
2018-03-01T04:27:34.499Z,-6.60
2018-03-01T04:30:01.533Z,-6.60
2018-03-01T04:32:28.319Z,-6.60
2018-03-01T04:34:55.374Z,-6.60
2018-03-01T04:37:22.543Z,-6.60
2018-03-01T04:39:49.656Z,-6.60
2018-03-01T04:42:15.943Z,-6.70
2018-03-01T04:44:42.328Z,-6.70
2018-03-01T04:47:09.745Z,-6.70
2018-03-01T04:49:36.820Z,-6.70
2018-03-01T04:52:04.903Z,-6.60
2018-03-01T04:54:32.318Z,-6.50
2018-03-01T04:56:58.607Z,-6.60
2018-03-01T04:59:25.681Z,-6.60
2018-03-01T05:01:53.147Z,-6.60
2018-03-01T05:04:24.421Z,-6.60
2018-03-01T05:06:50.736Z,-6.60
2018-03-01T05:09:17.921Z,-6.60
2018-03-01T05:11:44.235Z,-6.60
2018-03-01T05:14:11.399Z,-6.70
2018-03-01T05:16:37.891Z,-6.70
2018-03-01T05:19:04.203Z,-6.60
2018-03-01T05:21:31.487Z,-6.60
2018-03-01T05:23:58.060Z,-6.60
2018-03-01T05:26:24.382Z,-6.70
2018-03-01T05:28:50.702Z,-6.50
2018-03-01T05:31:17.456Z,-6.50
2018-03-01T05:33:48.547Z,-6.50
2018-03-01T05:36:14.890Z,-6.60
2018-03-01T05:38:41.517Z,-6.60
2018-03-01T05:41:11.515Z,-6.60
2018-03-01T05:43:38.575Z,-6.50
2018-03-01T05:46:05.340Z,-6.50
2018-03-01T05:48:31.675Z,-6.60
2018-03-01T05:50:59.052Z,-6.50
2018-03-01T05:53:25.579Z,-6.50
2018-03-01T05:55:52.979Z,-6.50
2018-03-01T05:58:19.315Z,-6.50
2018-03-01T06:00:45.763Z,-6.50
2018-03-01T06:03:12.030Z,-6.50
2018-03-01T06:05:38.330Z,-6.50
2018-03-01T06:08:04.835Z,-6.50
2018-03-01T06:10:31.223Z,-6.50
2018-03-01T06:12:57.553Z,-6.50
2018-03-01T06:15:25.912Z,-6.50
2018-03-01T06:17:52.296Z,-6.50
2018-03-01T06:20:18.636Z,-6.50
2018-03-01T06:22:45.023Z,-6.50
2018-03-01T06:25:11.307Z,-6.50
2018-03-01T06:27:39.394Z,-6.50
2018-03-01T06:30:06.502Z,-6.50
2018-03-01T06:32:32.783Z,-6.50
2018-03-01T06:34:59.873Z,-6.50
2018-03-01T06:37:26.422Z,-6.50
2018-03-01T06:39:52.747Z,-6.50
2018-03-01T06:42:19.806Z,-6.50
2018-03-01T06:44:47.930Z,-6.50
2018-03-01T06:47:15.275Z,-6.50
2018-03-01T06:49:41.597Z,-6.40
2018-03-01T06:52:08.705Z,-6.50
2018-03-01T06:54:34.991Z,-6.50
2018-03-01T06:57:02.076Z,-6.40
2018-03-01T06:59:28.530Z,-6.40
2018-03-01T07:01:54.868Z,-6.50
2018-03-01T07:04:21.133Z,-6.40
2018-03-01T07:06:49.668Z,-6.30
2018-03-01T07:09:15.978Z,-6.30
2018-03-01T07:11:44.074Z,-6.30
2018-03-01T07:14:11.127Z,-6.20
2018-03-01T07:16:39.475Z,-6.20
2018-03-01T07:19:05.831Z,-6.10
2018-03-01T07:21:32.287Z,-6.10
2018-03-01T07:23:58.555Z,-6.10
2018-03-01T07:26:24.831Z,-6.10
2018-03-01T07:28:51.947Z,-6.10
2018-03-01T07:31:21.639Z,-6.10
2018-03-01T07:33:47.955Z,-6.00
2018-03-01T07:36:14.999Z,-5.90
2018-03-01T07:38:41.359Z,-5.90
2018-03-01T07:41:08.627Z,-5.90
2018-03-01T07:43:35.833Z,-5.80
2018-03-01T07:46:02.138Z,-5.80
2018-03-01T07:48:28.417Z,-5.80
2018-03-01T07:50:54.747Z,-5.70
2018-03-01T07:53:21.015Z,-5.70
2018-03-01T07:55:47.298Z,-5.60
2018-03-01T07:58:14.395Z,-5.70
2018-03-01T08:00:41.723Z,-5.70
2018-03-01T08:03:08.795Z,-5.70
2018-03-01T08:05:36.188Z,-5.70
2018-03-01T08:08:02.491Z,-5.70
2018-03-01T08:10:28.855Z,-5.60
2018-03-01T08:12:55.298Z,-5.70
2018-03-01T08:15:21.619Z,-5.60
2018-03-01T08:17:48.684Z,-5.70
2018-03-01T08:20:15.730Z,-5.60
2018-03-01T08:22:43.823Z,-5.70
2018-03-01T08:25:11.915Z,-5.70
2018-03-01T08:27:38.542Z,-5.70
2018-03-01T08:30:04.911Z,-5.70
2018-03-01T08:32:32.287Z,-5.80
2018-03-01T08:34:58.783Z,-5.80
2018-03-01T08:37:25.178Z,-5.60
2018-03-01T08:39:51.523Z,-5.60
2018-03-01T08:42:18.228Z,-5.50
2018-03-01T08:44:45.523Z,-5.50
2018-03-01T08:47:11.803Z,-5.30
2018-03-01T08:49:39.263Z,-5.30
2018-03-01T08:52:05.574Z,-5.30
2018-03-01T08:54:31.924Z,-5.30
2018-03-01T08:56:59.459Z,-5.40
2018-03-01T08:59:25.759Z,-5.30
2018-03-01T09:01:52.063Z,-5.30
2018-03-01T09:04:22.699Z,-5.40
2018-03-01T09:06:53.038Z,-5.30
2018-03-01T09:09:20.107Z,-5.30
2018-03-01T09:11:47.290Z,-5.30
2018-03-01T09:14:13.559Z,-5.30
2018-03-01T09:16:39.851Z,-5.20
2018-03-01T09:19:07.051Z,-5.20
2018-03-01T09:21:33.419Z,-5.20
2018-03-01T09:23:59.757Z,-5.00
2018-03-01T09:26:26.540Z,-4.90
2018-03-01T09:28:53.755Z,-5.00
2018-03-01T09:31:20.067Z,-5.00
2018-03-01T09:33:46.507Z,-4.90
2018-03-01T09:36:12.843Z,-4.90
2018-03-01T09:38:39.916Z,-4.60
2018-03-01T09:41:06.214Z,-4.60
2018-03-01T09:43:32.603Z,-4.60
2018-03-01T09:45:59.142Z,-4.50
2018-03-01T09:48:25.559Z,-4.40
2018-03-01T09:50:51.935Z,-4.50
2018-03-01T09:53:18.266Z,-4.40
2018-03-01T09:55:49.662Z,-4.30
2018-03-01T09:58:21.597Z,-4.30
2018-03-01T10:00:48.704Z,-4.30
2018-03-01T10:03:15.400Z,-4.30
2018-03-01T10:05:43.499Z,-4.20
2018-03-01T10:08:10.564Z,-4.10
2018-03-01T10:10:42.897Z,-4.10
2018-03-01T10:13:09.193Z,-4.10
2018-03-01T10:15:35.479Z,-4.10
2018-03-01T10:18:03.625Z,-3.90
2018-03-01T10:20:35.599Z,-3.90
2018-03-01T10:23:05.223Z,-3.90
2018-03-01T10:25:31.519Z,-3.90
2018-03-01T10:27:57.903Z,-3.70
2018-03-01T10:30:24.479Z,-3.80
2018-03-01T10:32:50.799Z,-3.60
2018-03-01T10:35:18.143Z,-3.60
2018-03-01T10:37:46.727Z,-3.60
2018-03-01T10:40:14.856Z,-3.70
2018-03-01T10:42:41.175Z,-3.70
2018-03-01T10:45:08.686Z,-3.60
2018-03-01T10:47:34.983Z,-3.30
2018-03-01T10:50:02.447Z,-3.00
2018-03-01T10:52:31.614Z,-3.10
2018-03-01T10:54:58.955Z,-3.10
2018-03-01T10:57:29.067Z,-3.30
2018-03-01T10:59:56.476Z,-3.30
2018-03-01T11:02:24.503Z,-3.00
2018-03-01T11:04:50.775Z,-3.00
2018-03-01T11:07:18.250Z,-3.10
2018-03-01T11:09:44.578Z,-3.20
2018-03-01T11:12:18.665Z,-3.00
2018-03-01T11:14:44.935Z,-2.80
2018-03-01T11:17:11.321Z,-2.70
2018-03-01T11:19:37.671Z,-2.40
2018-03-01T11:22:03.961Z,-2.40
2018-03-01T11:24:30.352Z,-2.30
2018-03-01T11:26:56.684Z,-2.30
2018-03-01T11:29:23.003Z,-2.10
2018-03-01T11:31:49.361Z,-2.10
2018-03-01T11:34:15.806Z,-2.40
2018-03-01T11:36:42.160Z,-2.50
2018-03-01T11:39:10.220Z,-2.40
2018-03-01T11:41:40.422Z,-2.40
2018-03-01T11:44:12.844Z,-2.10
2018-03-01T11:46:39.152Z,-2.10
2018-03-01T11:49:06.455Z,-1.80
2018-03-01T11:51:33.811Z,-1.90
2018-03-01T11:54:00.160Z,-2.00
2018-03-01T11:56:26.651Z,-2.00
2018-03-01T11:58:52.928Z,-2.00
2018-03-01T12:01:19.275Z,-1.80
2018-03-01T12:03:45.736Z,-1.70
2018-03-01T12:06:12.071Z,-1.70
2018-03-01T12:08:38.401Z,-1.80
2018-03-01T12:11:14.820Z,-1.70
2018-03-01T12:13:49.132Z,-1.30
2018-03-01T12:16:15.844Z,-1.10
2018-03-01T12:18:43.949Z,-1.00
2018-03-01T12:21:10.292Z,-1.00
2018-03-01T12:23:36.699Z,-1.30
2018-03-01T12:26:03.799Z,-1.50
2018-03-01T12:28:33.715Z,-1.50
2018-03-01T12:31:02.251Z,-1.50
2018-03-01T12:33:28.531Z,-1.40
2018-03-01T12:35:59.820Z,-1.20
2018-03-01T12:38:53.659Z,-1.20
2018-03-01T12:41:21.012Z,-1.10
2018-03-01T12:43:54.819Z,-0.90
2018-03-01T12:46:22.168Z,-0.60
2018-03-01T12:48:48.495Z,-0.90
2018-03-01T12:51:14.911Z,-0.90
2018-03-01T12:53:42.237Z,-0.90
2018-03-01T12:56:08.596Z,-0.80
2018-03-01T12:58:44.191Z,-0.50
2018-03-01T13:01:25.596Z,-0.30
2018-03-01T13:04:11.420Z,-0.50
2018-03-01T13:06:40.923Z,-0.50
2018-03-01T13:09:07.320Z,-0.20
2018-03-01T13:11:33.794Z,-0.10
2018-03-01T13:14:00.928Z,-0.20
2018-03-01T13:16:27.252Z,-0.20
2018-03-01T13:18:53.705Z,-0.30
2018-03-01T13:21:23.739Z,-0.30
2018-03-01T13:23:52.891Z,-0.30
2018-03-01T13:26:22.363Z,-0.40
2018-03-01T13:28:48.777Z,-0.40
2018-03-01T13:31:19.884Z,-0.30
2018-03-01T13:33:52.398Z,-0.10
2018-03-01T13:36:24.428Z,-0.10
2018-03-01T13:38:50.785Z,-0.20
2018-03-01T13:41:17.344Z,-0.10
2018-03-01T13:43:45.712Z,-0.20
2018-03-01T13:46:18.326Z,-0.20
2018-03-01T13:48:44.708Z,0.00
2018-03-01T13:51:12.105Z,-0.20
2018-03-01T13:53:43.611Z,0.00
2018-03-01T13:56:10.752Z,0.10
2018-03-01T13:58:37.051Z,0.10
2018-03-01T14:01:28.516Z,0.20
2018-03-01T14:03:54.856Z,0.20
2018-03-01T14:09:28.614Z,0.10
2018-03-01T14:11:55.840Z,0.10
2018-03-01T14:14:32.642Z,0.10
2018-03-01T14:17:10.040Z,0.10
2018-03-01T14:19:42.404Z,0.40
2018-03-01T14:22:10.031Z,0.40
2018-03-01T14:24:36.712Z,0.40
2018-03-01T14:27:07.159Z,0.20
2018-03-01T14:29:33.694Z,0.30
2018-03-01T14:32:01.416Z,0.40
2018-03-01T14:34:27.751Z,0.30
2018-03-01T14:36:54.077Z,0.20
2018-03-01T14:39:22.666Z,0.20
2018-03-01T14:41:56.813Z,0.20
2018-03-01T14:44:25.248Z,0.20
2018-03-01T14:46:52.477Z,0.30
2018-03-01T14:49:27.527Z,0.30
2018-03-01T14:51:53.883Z,0.40
2018-03-01T14:54:21.218Z,0.30
2018-03-01T14:57:00.169Z,0.30
2018-03-01T14:59:28.567Z,0.30
2018-03-01T15:01:56.940Z,0.40
2018-03-01T15:04:23.334Z,0.30
2018-03-01T15:06:50.786Z,0.40
2018-03-01T15:09:17.118Z,0.50
2018-03-01T15:11:45.741Z,0.50
2018-03-01T15:14:20.992Z,0.50
2018-03-01T15:16:49.396Z,0.50
2018-03-01T15:19:23.176Z,0.60
2018-03-01T15:21:50.608Z,0.50
2018-03-01T15:24:18.038Z,0.60
2018-03-01T15:26:45.096Z,0.70
2018-03-01T15:29:19.182Z,0.70
2018-03-01T15:31:46.559Z,0.70
2018-03-01T15:34:21.306Z,0.80
2018-03-01T15:37:03.710Z,0.80
2018-03-01T15:39:30.215Z,0.80
2018-03-01T15:42:02.733Z,1.00
2018-03-01T15:44:30.219Z,1.00
2018-03-01T15:47:02.793Z,1.00
2018-03-01T15:49:30.252Z,1.00
2018-03-01T15:51:58.903Z,0.90
2018-03-01T15:54:25.753Z,0.80
2018-03-01T15:57:01.533Z,0.80
2018-03-01T15:59:30.234Z,0.80
2018-03-01T16:01:57.297Z,0.80
2018-03-01T16:04:24.626Z,0.80
2018-03-01T16:06:55.617Z,0.90
2018-03-01T16:09:30.237Z,0.90
2018-03-01T16:12:01.210Z,0.90
2018-03-01T16:14:28.895Z,0.90
2018-03-01T16:16:57.736Z,0.80
2018-03-01T16:19:30.463Z,0.80
2018-03-01T16:22:00.574Z,0.90
2018-03-01T16:24:39.020Z,0.90
2018-03-01T16:27:10.000Z,1.00
2018-03-01T16:29:41.566Z,0.90
2018-03-01T16:32:08.409Z,1.00
2018-03-01T16:34:35.880Z,1.00
2018-03-01T16:37:02.937Z,1.00
2018-03-01T16:39:29.473Z,0.90
2018-03-01T16:42:00.064Z,0.70
2018-03-01T16:44:27.868Z,0.60
2018-03-01T16:46:57.274Z,0.60
2018-03-01T16:49:23.584Z,0.60
2018-03-01T16:51:50.173Z,0.60
2018-03-01T16:54:33.781Z,0.60
2018-03-01T16:57:00.973Z,0.60
2018-03-01T16:59:29.574Z,0.50
2018-03-01T17:01:58.383Z,0.50
2018-03-01T17:04:24.769Z,0.50
2018-03-01T17:06:59.437Z,0.50
2018-03-01T17:09:26.260Z,0.40
2018-03-01T17:11:58.577Z,0.40
2018-03-01T17:14:42.272Z,0.40
2018-03-01T17:17:08.628Z,0.40
2018-03-01T17:19:39.070Z,0.40
2018-03-01T17:22:29.936Z,0.40
2018-03-01T17:24:59.749Z,0.40
2018-03-01T17:27:26.112Z,0.30
2018-03-01T17:29:59.948Z,0.30
2018-03-01T17:32:28.621Z,0.30
2018-03-01T17:34:58.818Z,0.30
2018-03-01T17:37:30.162Z,0.40
2018-03-01T17:39:58.697Z,0.40
2018-03-01T17:42:25.749Z,0.30
2018-03-01T17:44:52.294Z,0.30
2018-03-01T17:47:20.678Z,0.40
2018-03-01T17:49:55.945Z,0.30
2018-03-01T17:52:32.190Z,0.30
2018-03-01T17:54:58.892Z,0.30
2018-03-01T17:57:26.051Z,0.30
2018-03-01T17:59:53.336Z,0.30
2018-03-01T18:02:20.962Z,0.30
2018-03-01T18:04:48.012Z,0.30
2018-03-01T18:07:22.060Z,0.30
2018-03-01T18:09:49.108Z,0.30
2018-03-01T18:12:15.516Z,0.30
2018-03-01T18:14:50.877Z,0.40
2018-03-01T18:17:21.542Z,0.30
2018-03-01T18:19:47.939Z,0.30
2018-03-01T18:22:16.545Z,0.20
2018-03-01T18:24:42.900Z,0.20
2018-03-01T18:27:18.249Z,0.20
2018-03-01T18:29:46.723Z,0.20
2018-03-01T18:32:17.166Z,0.20
2018-03-01T18:34:43.663Z,0.30
2018-03-01T18:37:11.234Z,0.20
2018-03-01T18:39:37.544Z,0.10
2018-03-01T18:42:12.506Z,0.10
2018-03-01T18:44:40.948Z,0.10
2018-03-01T18:47:23.051Z,0.10
2018-03-01T18:49:56.273Z,0.10
2018-03-01T18:52:26.392Z,0.10
2018-03-01T18:54:57.512Z,0.10
2018-03-01T18:57:23.940Z,0.10
2018-03-01T18:59:53.569Z,0.10
2018-03-01T19:02:20.964Z,0.00
2018-03-01T19:04:47.257Z,0.00
2018-03-01T19:07:21.612Z,0.00
2018-03-01T19:09:50.096Z,0.10
2018-03-01T19:12:21.438Z,0.00
2018-03-01T19:14:47.914Z,0.00
2018-03-01T19:17:20.042Z,0.00
2018-03-01T19:19:51.578Z,-0.10
2018-03-01T19:22:25.916Z,-0.10
2018-03-01T19:24:52.716Z,-0.10
2018-03-01T19:27:28.504Z,-0.10
2018-03-01T19:29:55.057Z,-0.20
2018-03-01T19:32:21.421Z,-0.20
2018-03-01T19:34:49.848Z,-0.20
2018-03-01T19:37:19.767Z,-0.20
2018-03-01T19:39:56.216Z,-0.30
2018-03-01T19:42:23.860Z,-0.30
2018-03-01T19:44:50.271Z,-0.30
2018-03-01T19:47:20.712Z,-0.30
2018-03-01T19:49:47.937Z,-0.30
2018-03-01T19:52:18.502Z,-0.30
2018-03-01T19:54:54.548Z,-0.30
2018-03-01T19:57:24.732Z,-0.30
2018-03-01T19:59:56.140Z,-0.30
2018-03-01T20:02:23.661Z,-0.30
2018-03-01T20:04:54.015Z,-0.40
2018-03-01T20:07:24.631Z,-0.40
2018-03-01T20:09:52.100Z,-0.40
2018-03-01T20:12:19.472Z,-0.40
2018-03-01T20:14:49.809Z,-0.40
2018-03-01T20:17:20.298Z,-0.40
2018-03-01T20:19:46.604Z,-0.40
2018-03-01T20:22:14.016Z,-0.50
2018-03-01T20:24:44.177Z,-0.50
2018-03-01T20:27:10.598Z,-0.50
2018-03-01T20:29:42.138Z,-0.50
2018-03-01T20:32:23.627Z,-0.60
2018-03-01T20:34:55.544Z,-0.50
2018-03-01T20:37:26.022Z,-0.50
2018-03-01T20:40:01.845Z,-0.60
2018-03-01T20:42:32.224Z,-0.60
2018-03-01T20:44:58.535Z,-0.60
2018-03-01T20:47:32.379Z,-0.60
2018-03-01T20:49:58.685Z,-0.60
2018-03-01T20:52:32.426Z,-0.60
2018-03-01T20:54:59.566Z,-0.70
2018-03-01T20:57:25.867Z,-0.60
2018-03-01T21:00:00.692Z,-0.70
2018-03-01T21:02:27.797Z,-0.60
2018-03-01T21:04:59.161Z,-0.70
2018-03-01T21:07:28.641Z,-0.70
2018-03-01T21:10:04.342Z,-0.70
2018-03-01T21:12:30.748Z,-0.80
2018-03-01T21:15:06.080Z,-0.80
2018-03-01T21:17:32.635Z,-0.80
2018-03-01T21:20:00.015Z,-0.80
2018-03-01T21:22:27.181Z,-0.90
2018-03-01T21:24:58.213Z,-0.90
2018-03-01T21:27:24.682Z,-0.90
2018-03-01T21:30:00.082Z,-0.90
2018-03-01T21:32:38.712Z,-0.90
2018-03-01T21:35:24.601Z,-1.00
2018-03-01T21:37:52.002Z,-1.00
2018-03-01T21:40:24.557Z,-1.00
2018-03-01T21:42:54.589Z,-1.10
2018-03-01T21:45:21.684Z,-1.20
2018-03-01T21:47:52.901Z,-1.20
2018-03-01T21:50:20.296Z,-1.30
2018-03-01T21:52:56.156Z,-1.20
2018-03-01T21:55:24.605Z,-1.20
2018-03-01T21:57:50.935Z,-1.30
2018-03-01T22:00:26.200Z,-1.30
2018-03-01T22:02:57.057Z,-1.30
2018-03-01T22:05:42.795Z,-1.30
2018-03-01T22:08:13.213Z,-1.30
2018-03-01T22:10:51.781Z,-1.30
2018-03-01T22:13:22.269Z,-1.40
2018-03-01T22:15:50.481Z,-1.30
2018-03-01T22:18:20.130Z,-1.30
2018-03-01T22:20:46.494Z,-1.30
2018-03-01T22:23:13.859Z,-1.40
2018-03-01T22:25:55.579Z,-1.40
2018-03-01T22:28:24.730Z,-1.40
2018-03-01T22:30:55.905Z,-1.40
2018-03-01T22:33:25.701Z,-1.40
2018-03-01T22:35:54.941Z,-1.40
2018-03-01T22:38:28.865Z,-1.40
2018-03-01T22:40:55.359Z,-1.40
2018-03-01T22:43:35.770Z,-1.40
2018-03-01T22:46:04.264Z,-1.40
2018-03-01T22:48:36.920Z,-1.40
2018-03-01T22:51:06.992Z,-1.40
2018-03-01T22:53:36.638Z,-1.40
2018-03-01T22:56:08.966Z,-1.40
2018-03-01T22:58:46.436Z,-1.40
2018-03-01T23:01:12.993Z,-1.50
2018-03-01T23:03:40.320Z,-1.50
2018-03-01T23:06:08.812Z,-1.40
2018-03-01T23:08:39.588Z,-1.50
2018-03-01T23:11:10.252Z,-1.50
2018-03-01T23:13:42.669Z,-1.50
2018-03-01T23:16:11.710Z,-1.50
2018-03-01T23:18:43.762Z,-1.50
2018-03-01T23:21:22.695Z,-1.50
2018-03-01T23:23:52.164Z,-1.50
2018-03-01T23:26:18.672Z,-1.50
2018-03-01T23:28:46.199Z,-1.50
2018-03-01T23:31:14.556Z,-1.60
2018-03-01T23:33:40.892Z,-1.60
2018-03-01T23:36:10.636Z,-1.60
2018-03-01T23:38:39.257Z,-1.60
2018-03-01T23:41:13.954Z,-1.60
2018-03-01T23:43:44.334Z,-1.60
2018-03-01T23:46:14.914Z,-1.70
2018-03-01T23:48:41.204Z,-1.70
2018-03-01T23:51:13.478Z,-1.70
2018-03-01T23:53:45.404Z,-1.60
2018-03-01T23:56:14.678Z,-1.70
2018-03-01T23:58:43.120Z,-1.70
